createdAt,value
2023-10-03T00:00:29.707Z,100.00
2023-10-03T00:02:57.260Z,100.00
2023-10-03T00:05:25.512Z,100.00
2023-10-03T00:07:53.018Z,100.00
2023-10-03T00:10:20.329Z,100.00
2023-10-03T00:12:52.644Z,100.00
2023-10-03T00:15:22.531Z,100.00
2023-10-03T00:17:49.224Z,100.00
2023-10-03T00:20:17.573Z,100.00
2023-10-03T00:22:45.703Z,100.00
2023-10-03T00:25:18.981Z,100.00
2023-10-03T00:27:47.734Z,100.00
2023-10-03T00:30:15.897Z,100.00
2023-10-03T00:32:47.532Z,100.00
2023-10-03T00:35:16.320Z,100.00
2023-10-03T00:37:47.784Z,100.00
2023-10-03T00:40:24.798Z,100.00
2023-10-03T00:42:53.195Z,100.00
2023-10-03T00:45:23.222Z,100.00
2023-10-03T00:47:50.799Z,100.00
2023-10-03T00:50:21.701Z,100.00
2023-10-03T00:52:51.290Z,100.00
2023-10-03T00:55:17.849Z,100.00
2023-10-03T00:57:44.350Z,100.00
2023-10-03T01:00:18.615Z,100.00
2023-10-03T01:02:49.493Z,100.00
2023-10-03T01:05:17.407Z,100.00
2023-10-03T01:07:50.189Z,100.00
2023-10-03T01:10:19.908Z,100.00
2023-10-03T01:12:47.936Z,100.00
2023-10-03T01:15:19.629Z,100.00
2023-10-03T01:17:50.547Z,100.00
2023-10-03T01:20:26.459Z,100.00
2023-10-03T01:22:53.757Z,100.00
2023-10-03T01:25:21.678Z,100.00
2023-10-03T01:27:48.275Z,100.00
2023-10-03T01:30:14.814Z,100.00
2023-10-03T01:32:57.746Z,100.00
2023-10-03T01:35:24.428Z,100.00
2023-10-03T01:37:51.269Z,100.00
2023-10-03T01:40:18.402Z,100.00
2023-10-03T01:42:46.443Z,100.00
2023-10-03T01:45:24.658Z,100.00
2023-10-03T01:47:52.816Z,100.00
2023-10-03T01:50:21.169Z,100.00
2023-10-03T01:52:49.439Z,100.00
2023-10-03T01:55:19.034Z,100.00
2023-10-03T01:57:46.703Z,100.00
2023-10-03T02:00:27.431Z,100.00
2023-10-03T02:02:57.854Z,100.00
2023-10-03T02:05:26.493Z,100.00
2023-10-03T02:07:56.421Z,100.00
2023-10-03T02:10:24.060Z,100.00
2023-10-03T02:12:51.533Z,100.00
2023-10-03T02:15:22.657Z,100.00
2023-10-03T02:17:57.330Z,100.00
2023-10-03T02:20:26.728Z,100.00
2023-10-03T02:22:57.091Z,100.00
2023-10-03T02:25:29.194Z,100.00
2023-10-03T02:28:01.063Z,100.00
2023-10-03T02:30:27.722Z,100.00
2023-10-03T02:32:55.646Z,100.00
2023-10-03T02:35:26.476Z,100.00
2023-10-03T02:37:56.936Z,100.00
2023-10-03T02:40:28.060Z,100.00
2023-10-03T02:42:56.291Z,100.00
2023-10-03T02:45:24.623Z,100.00
2023-10-03T02:47:57.412Z,100.00
2023-10-03T02:50:24.931Z,100.00
2023-10-03T02:52:53.332Z,100.00
2023-10-03T02:55:19.846Z,100.00
2023-10-03T02:57:46.414Z,100.00
2023-10-03T03:00:13.580Z,100.00
2023-10-03T03:02:47.637Z,100.00
2023-10-03T03:05:19.308Z,100.00
2023-10-03T03:07:50.342Z,100.00
2023-10-03T03:10:19.321Z,100.00
2023-10-03T03:12:46.007Z,100.00
2023-10-03T03:15:13.590Z,100.00
2023-10-03T03:17:43.125Z,100.00
2023-10-03T03:20:20.485Z,100.00
2023-10-03T03:22:48.568Z,100.00
2023-10-03T03:25:39.024Z,100.00
2023-10-03T03:28:13.939Z,100.00
2023-10-03T03:30:47.411Z,100.00
2023-10-03T03:33:15.768Z,100.00
2023-10-03T03:35:42.608Z,100.00
2023-10-03T03:38:16.396Z,100.00
2023-10-03T03:41:09.694Z,100.00
2023-10-03T03:43:37.511Z,100.00
2023-10-03T03:46:04.969Z,100.00
2023-10-03T03:48:35.216Z,100.00
2023-10-03T03:51:02.054Z,100.00
2023-10-03T03:53:31.129Z,100.00
2023-10-03T03:55:57.803Z,100.00
2023-10-03T03:58:24.449Z,100.00
2023-10-03T04:00:54.063Z,100.00
2023-10-03T04:03:25.307Z,100.00
2023-10-03T04:05:52.224Z,100.00
2023-10-03T04:08:19.533Z,100.00
2023-10-03T04:10:47.086Z,100.00
2023-10-03T04:13:17.638Z,100.00
2023-10-03T04:15:47.209Z,100.00
2023-10-03T04:18:15.747Z,100.00
2023-10-03T04:20:45.504Z,100.00
2023-10-03T04:23:12.645Z,100.00
2023-10-03T04:25:41.082Z,100.00
2023-10-03T04:28:10.215Z,100.00
2023-10-03T04:30:37.573Z,100.00
2023-10-03T04:33:04.943Z,100.00
2023-10-03T04:35:31.581Z,100.00
2023-10-03T04:37:58.697Z,100.00
2023-10-03T04:40:32.577Z,100.00
2023-10-03T04:42:59.669Z,100.00
2023-10-03T04:45:26.934Z,100.00
2023-10-03T04:47:54.037Z,100.00
2023-10-03T04:50:27.071Z,100.00
2023-10-03T04:52:54.394Z,100.00
2023-10-03T04:55:23.131Z,100.00
2023-10-03T04:57:51.692Z,100.00
2023-10-03T05:00:24.771Z,100.00
2023-10-03T05:02:53.862Z,100.00
2023-10-03T05:05:25.345Z,100.00
2023-10-03T05:07:57.529Z,100.00
2023-10-03T05:10:25.420Z,100.00
2023-10-03T05:12:53.229Z,100.00
2023-10-03T05:15:21.236Z,100.00
2023-10-03T05:17:49.867Z,100.00
2023-10-03T05:20:21.404Z,100.00
2023-10-03T05:22:48.738Z,100.00
2023-10-03T05:25:18.613Z,100.00
2023-10-03T05:27:49.233Z,100.00
2023-10-03T05:30:16.121Z,100.00
2023-10-03T05:32:48.071Z,100.00
2023-10-03T05:35:14.850Z,100.00
2023-10-03T05:37:41.870Z,100.00
2023-10-03T05:40:29.550Z,100.00
2023-10-03T05:42:58.887Z,100.00
2023-10-03T05:45:25.517Z,100.00
2023-10-03T05:47:53.595Z,100.00
2023-10-03T05:50:25.352Z,100.00
2023-10-03T05:52:52.639Z,100.00
2023-10-03T05:55:20.090Z,100.00
2023-10-03T05:57:46.950Z,100.00
2023-10-03T06:00:19.935Z,100.00
2023-10-03T06:02:48.758Z,100.00
2023-10-03T06:05:16.403Z,100.00
2023-10-03T06:07:44.281Z,100.00
2023-10-03T06:10:18.313Z,100.00
2023-10-03T06:12:48.184Z,100.00
2023-10-03T06:15:14.850Z,100.00
2023-10-03T06:17:44.023Z,100.00
2023-10-03T06:20:15.246Z,100.00
2023-10-03T06:22:42.620Z,100.00
2023-10-03T06:25:11.002Z,100.00
2023-10-03T06:27:38.459Z,100.00
2023-10-03T06:30:07.001Z,100.00
2023-10-03T06:32:33.660Z,100.00
2023-10-03T06:35:06.028Z,100.00
2023-10-03T06:37:34.173Z,100.00
2023-10-03T06:40:00.695Z,100.00
2023-10-03T06:42:27.664Z,100.00
2023-10-03T06:44:54.236Z,100.00
2023-10-03T06:47:21.858Z,100.00
2023-10-03T06:49:50.221Z,100.00
2023-10-03T06:52:16.907Z,100.00
2023-10-03T06:54:43.871Z,100.00
2023-10-03T06:57:11.400Z,100.00
2023-10-03T06:59:38.172Z,100.00
2023-10-03T07:02:05.464Z,100.00
2023-10-03T07:04:34.990Z,100.00
2023-10-03T07:07:03.496Z,100.00
2023-10-03T07:09:31.215Z,100.00
2023-10-03T07:11:58.856Z,100.00
2023-10-03T07:14:31.155Z,100.00
2023-10-03T07:16:57.697Z,100.00
2023-10-03T07:19:25.597Z,100.00
2023-10-03T07:21:54.205Z,100.00
2023-10-03T07:24:22.047Z,100.00
2023-10-03T07:26:48.833Z,100.00
2023-10-03T07:29:15.342Z,100.00
2023-10-03T07:31:42.296Z,100.00
2023-10-03T07:34:09.101Z,100.00
2023-10-03T07:36:35.590Z,100.00
2023-10-03T07:39:02.401Z,100.00
2023-10-03T07:41:29.646Z,100.00
2023-10-03T07:43:57.542Z,100.00
2023-10-03T07:46:26.593Z,100.00
2023-10-03T07:48:56.910Z,100.00
2023-10-03T07:51:28.533Z,100.00
2023-10-03T07:53:56.912Z,100.00
2023-10-03T07:56:32.390Z,100.00
2023-10-03T07:59:03.968Z,100.00
2023-10-03T08:01:44.868Z,100.00
2023-10-03T08:04:16.044Z,100.00
2023-10-03T08:06:42.719Z,100.00
2023-10-03T08:09:10.158Z,100.00
2023-10-03T08:11:37.618Z,100.00
2023-10-03T08:14:17.111Z,100.00
2023-10-03T08:16:48.041Z,100.00
2023-10-03T08:19:28.223Z,100.00
2023-10-03T08:21:56.231Z,100.00
2023-10-03T08:24:29.312Z,100.00
2023-10-03T08:27:00.345Z,100.00
2023-10-03T08:29:27.459Z,100.00
2023-10-03T08:31:59.031Z,100.00
2023-10-03T08:34:26.411Z,100.00
2023-10-03T08:36:55.384Z,100.00
2023-10-03T08:39:24.349Z,100.00
2023-10-03T08:42:15.253Z,100.00
2023-10-03T08:44:54.095Z,100.00
2023-10-03T08:47:31.146Z,100.00
2023-10-03T08:50:12.588Z,100.00
2023-10-03T08:52:48.924Z,100.00
2023-10-03T08:55:20.658Z,100.00
2023-10-03T08:57:49.354Z,100.00
2023-10-03T09:00:18.143Z,100.00
2023-10-03T09:02:54.206Z,100.00
2023-10-03T09:05:22.235Z,100.00
2023-10-03T09:07:50.038Z,100.00
2023-10-03T09:10:24.398Z,100.00
2023-10-03T09:13:05.263Z,100.00
2023-10-03T09:15:44.072Z,100.00
2023-10-03T09:18:16.627Z,100.00
2023-10-03T09:20:46.546Z,100.00
2023-10-03T09:23:17.017Z,100.00
2023-10-03T09:25:43.590Z,100.00
2023-10-03T09:28:11.353Z,100.00
2023-10-03T09:30:40.700Z,100.00
2023-10-03T09:33:10.165Z,100.00
2023-10-03T09:35:41.309Z,100.00
2023-10-03T09:38:10.290Z,100.00
2023-10-03T09:40:53.507Z,100.00
2023-10-03T09:43:20.911Z,100.00
2023-10-03T09:45:48.384Z,100.00
2023-10-03T09:48:15.542Z,100.00
2023-10-03T09:50:53.055Z,100.00
2023-10-03T09:53:20.642Z,100.00
2023-10-03T09:55:50.249Z,100.00
2023-10-03T09:58:25.539Z,100.00
2023-10-03T10:00:56.463Z,100.00
2023-10-03T10:03:29.277Z,100.00
2023-10-03T10:06:14.697Z,100.00
2023-10-03T10:08:42.810Z,100.00
2023-10-03T10:11:11.388Z,100.00
2023-10-03T10:13:43.620Z,100.00
2023-10-03T10:16:21.878Z,100.00
2023-10-03T10:18:53.081Z,100.00
2023-10-03T10:21:27.570Z,100.00
2023-10-03T10:24:16.985Z,100.00
2023-10-03T10:26:50.230Z,100.00
2023-10-03T10:29:20.701Z,100.00
2023-10-03T10:31:59.313Z,100.00
2023-10-03T10:34:30.733Z,100.00
2023-10-03T10:37:03.215Z,100.00
2023-10-03T10:39:58.276Z,100.00
2023-10-03T10:42:30.699Z,100.00
2023-10-03T10:45:14.902Z,100.00
2023-10-03T10:47:47.623Z,100.00
2023-10-03T10:50:25.878Z,100.00
2023-10-03T10:52:57.740Z,100.00
2023-10-03T10:55:25.782Z,100.00
2023-10-03T10:58:08.828Z,100.00
2023-10-03T11:00:36.325Z,100.00
2023-10-03T11:03:03.875Z,100.00
2023-10-03T11:05:52.010Z,100.00
2023-10-03T11:08:22.933Z,100.00
2023-10-03T11:10:50.833Z,100.00
2023-10-03T11:13:17.482Z,100.00
2023-10-03T11:15:51.592Z,100.00
2023-10-03T11:18:29.610Z,100.00
2023-10-03T11:20:58.938Z,100.00
2023-10-03T11:23:25.766Z,100.00
2023-10-03T11:25:56.802Z,100.00
2023-10-03T11:28:29.749Z,100.00
2023-10-03T11:31:06.833Z,100.00
2023-10-03T11:33:47.367Z,100.00
2023-10-03T11:36:15.325Z,100.00
2023-10-03T11:38:52.202Z,100.00
2023-10-03T11:41:32.538Z,100.00
2023-10-03T11:43:59.231Z,100.00
2023-10-03T11:46:26.616Z,100.00
2023-10-03T11:49:00.489Z,100.00
2023-10-03T11:51:27.094Z,100.00
2023-10-03T11:53:54.355Z,100.00
2023-10-03T11:56:21.529Z,100.00
2023-10-03T11:58:48.190Z,100.00
2023-10-03T12:01:14.716Z,100.00
2023-10-03T12:03:43.883Z,100.00
2023-10-03T12:06:10.766Z,100.00
2023-10-03T12:08:41.983Z,100.00
2023-10-03T12:11:08.836Z,100.00
2023-10-03T12:13:35.442Z,100.00
2023-10-03T12:16:05.958Z,100.00
2023-10-03T12:18:32.727Z,100.00
2023-10-03T12:21:00.067Z,100.00
2023-10-03T12:23:29.826Z,100.00
2023-10-03T12:25:58.312Z,100.00
2023-10-03T12:28:28.071Z,100.00
2023-10-03T12:30:55.362Z,100.00
2023-10-03T12:33:22.048Z,100.00
2023-10-03T12:35:48.772Z,100.00
2023-10-03T12:38:17.027Z,100.00
2023-10-03T12:40:44.654Z,100.00
2023-10-03T12:43:12.375Z,100.00
2023-10-03T12:45:39.048Z,100.00
2023-10-03T12:48:06.779Z,100.00
2023-10-03T12:50:37.058Z,100.00
2023-10-03T12:53:05.614Z,100.00
2023-10-03T12:55:33.808Z,100.00
2023-10-03T12:58:00.655Z,100.00
2023-10-03T13:00:27.761Z,100.00
2023-10-03T13:02:56.222Z,100.00
2023-10-03T13:05:24.283Z,100.00
2023-10-03T13:07:51.971Z,100.00
2023-10-03T13:10:20.209Z,100.00
2023-10-03T13:12:48.927Z,100.00
2023-10-03T13:15:17.309Z,100.00
2023-10-03T13:17:46.433Z,100.00
2023-10-03T13:20:14.290Z,100.00
2023-10-03T13:22:43.158Z,100.00
2023-10-03T13:25:10.898Z,100.00
2023-10-03T13:27:37.499Z,100.00
2023-10-03T13:30:12.871Z,100.00
2023-10-03T13:32:43.271Z,100.00
2023-10-03T13:35:10.024Z,100.00
2023-10-03T13:37:37.126Z,100.00
2023-10-03T13:40:06.691Z,100.00
2023-10-03T13:42:34.449Z,100.00
2023-10-03T13:45:00.972Z,100.00
2023-10-03T13:47:27.649Z,100.00
2023-10-03T13:49:54.195Z,100.00
2023-10-03T13:52:21.862Z,100.00
2023-10-03T13:54:48.398Z,100.00
2023-10-03T13:57:17.066Z,100.00
2023-10-03T13:59:46.948Z,100.00
2023-10-03T14:02:14.007Z,100.00
2023-10-03T14:04:40.554Z,100.00
2023-10-03T14:07:07.105Z,100.00
2023-10-03T14:09:33.699Z,100.00
2023-10-03T14:12:06.625Z,100.00
2023-10-03T14:14:35.799Z,100.00
2023-10-03T14:17:02.337Z,100.00
2023-10-03T14:19:29.934Z,100.00
2023-10-03T14:21:56.472Z,100.00
2023-10-03T14:24:23.170Z,100.00
2023-10-03T14:26:49.850Z,100.00
2023-10-03T14:29:16.474Z,100.00
2023-10-03T14:31:44.099Z,100.00
2023-10-03T14:34:11.469Z,100.00
2023-10-03T14:36:38.031Z,100.00
2023-10-03T14:39:05.681Z,100.00
2023-10-03T14:41:32.458Z,100.00
2023-10-03T14:43:59.185Z,100.00
2023-10-03T14:46:25.731Z,100.00
2023-10-03T14:48:52.292Z,100.00
2023-10-03T14:51:18.951Z,100.00
2023-10-03T14:53:53.474Z,100.00
2023-10-03T14:56:21.028Z,100.00
2023-10-03T14:58:47.655Z,100.00
2023-10-03T15:01:14.242Z,100.00
2023-10-03T15:03:40.948Z,100.00
2023-10-03T15:06:07.881Z,100.00
2023-10-03T15:08:35.968Z,100.00
2023-10-03T15:11:03.909Z,100.00
2023-10-03T15:13:31.600Z,100.00
2023-10-03T15:15:59.587Z,100.00
2023-10-03T15:18:27.338Z,100.00
2023-10-03T15:20:53.961Z,99.03
2023-10-03T15:23:22.938Z,97.02
2023-10-03T15:25:49.412Z,98.74
2023-10-03T15:28:15.893Z,97.84
2023-10-03T15:30:49.134Z,96.81
2023-10-03T15:33:16.191Z,96.23
2023-10-03T15:35:43.043Z,94.98
2023-10-03T15:38:09.610Z,96.34
2023-10-03T15:40:36.629Z,96.32
2023-10-03T15:43:03.994Z,97.22
2023-10-03T15:45:36.388Z,96.34
2023-10-03T15:48:06.176Z,95.23
2023-10-03T15:50:41.158Z,96.26
2023-10-03T15:53:09.617Z,97.51
2023-10-03T15:55:40.614Z,91.56
2023-10-03T15:58:08.150Z,91.83
2023-10-03T16:00:39.045Z,92.38
2023-10-03T16:03:09.964Z,91.75
2023-10-03T16:05:37.518Z,93.13
2023-10-03T16:08:06.366Z,92.56
2023-10-03T16:10:38.194Z,91.94
2023-10-03T16:13:07.411Z,93.67
2023-10-03T16:15:35.506Z,93.15
2023-10-03T16:18:02.235Z,93.48
2023-10-03T16:20:29.389Z,92.05
2023-10-03T16:22:57.048Z,93.02
2023-10-03T16:25:26.014Z,93.49
2023-10-03T16:27:52.609Z,94.30
2023-10-03T16:30:19.837Z,94.28
2023-10-03T16:32:46.919Z,93.64
2023-10-03T16:35:16.145Z,93.36
2023-10-03T16:37:44.163Z,94.25
2023-10-03T16:40:15.463Z,94.04
2023-10-03T16:42:42.802Z,94.71
2023-10-03T16:45:11.090Z,95.08
2023-10-03T16:47:39.557Z,95.14
2023-10-03T16:50:08.953Z,95.81
2023-10-03T16:52:36.018Z,96.02
2023-10-03T16:55:02.742Z,96.23
2023-10-03T16:57:29.392Z,97.06
2023-10-03T16:59:55.970Z,97.82
2023-10-03T17:02:26.185Z,98.93
2023-10-03T17:04:53.828Z,98.80
2023-10-03T17:07:20.353Z,99.50
2023-10-03T17:09:47.155Z,100.00
2023-10-03T17:12:13.968Z,100.00
2023-10-03T17:14:40.765Z,100.00
2023-10-03T17:17:09.934Z,100.00
2023-10-03T17:19:36.869Z,100.00
2023-10-03T17:22:03.394Z,100.00
2023-10-03T17:24:35.893Z,100.00
2023-10-03T17:27:02.876Z,100.00
2023-10-03T17:29:33.540Z,100.00
2023-10-03T17:32:02.444Z,100.00
2023-10-03T17:34:30.814Z,100.00
2023-10-03T17:36:57.699Z,100.00
2023-10-03T17:39:28.024Z,100.00
2023-10-03T17:41:56.246Z,100.00
2023-10-03T17:44:22.815Z,100.00
2023-10-03T17:46:49.884Z,100.00
2023-10-03T17:49:16.612Z,100.00
2023-10-03T17:51:43.344Z,100.00
2023-10-03T17:54:23.025Z,100.00
2023-10-03T17:56:54.811Z,100.00
2023-10-03T17:59:24.043Z,100.00
2023-10-03T18:01:51.848Z,100.00
2023-10-03T18:04:18.587Z,100.00
2023-10-03T18:06:45.146Z,100.00
2023-10-03T18:09:15.454Z,100.00
2023-10-03T18:11:42.330Z,100.00
2023-10-03T18:14:09.099Z,100.00
2023-10-03T18:16:37.000Z,100.00
2023-10-03T18:19:04.125Z,100.00
2023-10-03T18:21:31.223Z,100.00
2023-10-03T18:23:57.963Z,100.00
2023-10-03T18:26:24.566Z,100.00
2023-10-03T18:28:51.230Z,100.00
2023-10-03T18:31:20.020Z,100.00
2023-10-03T18:33:47.041Z,100.00
2023-10-03T18:36:20.553Z,100.00
2023-10-03T18:38:47.900Z,100.00
2023-10-03T18:41:14.498Z,100.00
2023-10-03T18:43:44.364Z,100.00
2023-10-03T18:46:11.356Z,100.00
2023-10-03T18:48:38.319Z,100.00
2023-10-03T18:51:08.734Z,100.00
2023-10-03T18:53:37.069Z,100.00
2023-10-03T18:56:14.690Z,100.00
2023-10-03T18:58:41.556Z,100.00
2023-10-03T19:01:31.005Z,100.00
2023-10-03T19:04:10.399Z,100.00
2023-10-03T19:06:37.271Z,100.00
2023-10-03T19:09:04.569Z,100.00
2023-10-03T19:11:31.713Z,100.00
2023-10-03T19:13:59.544Z,100.00
2023-10-03T19:16:27.046Z,100.00
2023-10-03T19:18:53.930Z,100.00
2023-10-03T19:21:22.386Z,100.00
2023-10-03T19:23:54.765Z,100.00
2023-10-03T19:26:26.782Z,100.00
2023-10-03T19:28:53.282Z,100.00
2023-10-03T19:31:25.844Z,100.00
2023-10-03T19:33:52.736Z,100.00
2023-10-03T19:36:21.226Z,100.00
2023-10-03T19:38:48.103Z,100.00
2023-10-03T19:41:15.816Z,100.00
2023-10-03T19:43:44.527Z,100.00
2023-10-03T19:46:20.185Z,100.00
2023-10-03T19:48:46.949Z,100.00
2023-10-03T19:51:17.289Z,100.00
2023-10-03T19:53:44.290Z,100.00
2023-10-03T19:56:17.009Z,100.00
2023-10-03T19:58:43.974Z,100.00
2023-10-03T20:01:10.545Z,100.00
2023-10-03T20:03:38.796Z,100.00
2023-10-03T20:06:09.404Z,100.00
2023-10-03T20:08:36.354Z,100.00
2023-10-03T20:11:03.231Z,100.00
2023-10-03T20:13:29.796Z,100.00
2023-10-03T20:15:56.428Z,100.00
2023-10-03T20:18:23.555Z,100.00
2023-10-03T20:20:50.860Z,100.00
2023-10-03T20:23:17.457Z,100.00
2023-10-03T20:25:44.006Z,100.00
2023-10-03T20:28:12.750Z,100.00
2023-10-03T20:30:39.430Z,100.00
2023-10-03T20:33:06.270Z,100.00
2023-10-03T20:35:33.396Z,100.00
2023-10-03T20:38:00.999Z,100.00
2023-10-03T20:40:27.835Z,100.00
2023-10-03T20:42:56.424Z,100.00
2023-10-03T20:45:23.005Z,100.00
2023-10-03T20:47:49.898Z,100.00
2023-10-03T20:50:17.851Z,100.00
2023-10-03T20:52:44.662Z,100.00
2023-10-03T20:55:11.610Z,100.00
2023-10-03T20:57:38.757Z,100.00
2023-10-03T21:00:07.677Z,100.00
2023-10-03T21:02:36.352Z,100.00
2023-10-03T21:05:02.921Z,100.00
2023-10-03T21:07:29.407Z,100.00
2023-10-03T21:09:56.260Z,100.00
2023-10-03T21:12:23.777Z,100.00
2023-10-03T21:14:50.961Z,100.00
2023-10-03T21:17:17.529Z,100.00
2023-10-03T21:19:44.086Z,100.00
2023-10-03T21:22:10.644Z,100.00
2023-10-03T21:24:37.254Z,100.00
2023-10-03T21:27:03.825Z,100.00
2023-10-03T21:29:32.502Z,100.00
2023-10-03T21:31:59.457Z,100.00
2023-10-03T21:34:27.186Z,100.00
2023-10-03T21:36:55.435Z,100.00
2023-10-03T21:39:23.296Z,100.00
2023-10-03T21:41:50.086Z,100.00
2023-10-03T21:44:16.873Z,100.00
2023-10-03T21:46:43.652Z,100.00
2023-10-03T21:49:10.681Z,100.00
2023-10-03T21:51:38.359Z,100.00
2023-10-03T21:54:05.244Z,100.00
2023-10-03T21:56:31.866Z,100.00
2023-10-03T21:58:58.974Z,100.00
2023-10-03T22:01:27.795Z,100.00
2023-10-03T22:03:55.420Z,100.00
2023-10-03T22:06:22.229Z,100.00
2023-10-03T22:08:49.425Z,100.00
2023-10-03T22:11:17.958Z,100.00
2023-10-03T22:13:44.955Z,100.00
2023-10-03T22:16:11.632Z,100.00
2023-10-03T22:18:39.000Z,100.00
2023-10-03T22:21:05.719Z,100.00
2023-10-03T22:23:32.496Z,100.00
2023-10-03T22:25:58.999Z,100.00
2023-10-03T22:28:25.461Z,100.00
2023-10-03T22:30:51.994Z,100.00
2023-10-03T22:33:19.110Z,100.00
2023-10-03T22:35:45.933Z,100.00
2023-10-03T22:38:12.503Z,100.00
2023-10-03T22:40:39.417Z,100.00
2023-10-03T22:43:07.993Z,100.00
2023-10-03T22:45:34.817Z,100.00
2023-10-03T22:48:03.057Z,100.00
2023-10-03T22:50:30.019Z,100.00
2023-10-03T22:52:57.104Z,100.00
2023-10-03T22:55:23.670Z,100.00
2023-10-03T22:57:50.392Z,100.00
2023-10-03T23:00:17.323Z,100.00
2023-10-03T23:02:45.305Z,100.00
2023-10-03T23:05:12.053Z,100.00
2023-10-03T23:07:40.976Z,100.00
2023-10-03T23:10:11.042Z,100.00
2023-10-03T23:12:40.507Z,100.00
2023-10-03T23:15:11.420Z,100.00
2023-10-03T23:17:38.645Z,100.00
2023-10-03T23:20:08.967Z,100.00
2023-10-03T23:22:36.226Z,100.00
2023-10-03T23:25:03.267Z,100.00
2023-10-03T23:27:30.087Z,100.00
2023-10-03T23:29:57.495Z,100.00
2023-10-03T23:32:26.388Z,100.00
2023-10-03T23:34:53.039Z,100.00
2023-10-03T23:37:21.338Z,100.00
2023-10-03T23:39:47.996Z,100.00
2023-10-03T23:42:15.388Z,100.00
2023-10-03T23:44:44.411Z,100.00
2023-10-03T23:47:12.074Z,100.00
2023-10-03T23:49:38.883Z,100.00
2023-10-03T23:52:07.205Z,100.00
2023-10-03T23:54:37.481Z,100.00
2023-10-03T23:57:14.165Z,100.00
2023-10-03T23:59:44.271Z,100.00
